createdAt,value
2018-02-07T00:02:06.125Z,-4.55
2018-02-07T00:04:34.068Z,-4.56
2018-02-07T00:07:01.910Z,-4.50
2018-02-07T00:09:29.680Z,-4.56
2018-02-07T00:11:57.507Z,-4.65
2018-02-07T00:14:25.275Z,-4.73
2018-02-07T00:16:53.116Z,-4.76
2018-02-07T00:19:21.015Z,-4.79
2018-02-07T00:21:48.838Z,-4.79
2018-02-07T00:24:16.606Z,-4.83
2018-02-07T00:26:44.472Z,-4.89
2018-02-07T00:29:12.238Z,-4.94
2018-02-07T00:31:40.204Z,-4.99
2018-02-07T00:34:08.144Z,-5.04
2018-02-07T00:36:36.199Z,-5.08
2018-02-07T00:39:04.138Z,-5.15
2018-02-07T00:41:31.927Z,-5.22
2018-02-07T00:43:59.711Z,-5.27
2018-02-07T00:46:27.524Z,-5.24
2018-02-07T00:48:55.367Z,-5.22
2018-02-07T00:51:23.272Z,-5.21
2018-02-07T00:53:51.067Z,-5.21
2018-02-07T00:56:18.926Z,-5.23
2018-02-07T00:58:46.719Z,-5.20
2018-02-07T01:01:14.546Z,-5.11
2018-02-07T01:03:42.322Z,-5.09
2018-02-07T01:06:10.103Z,-5.13
2018-02-07T01:08:37.965Z,-5.15
2018-02-07T01:11:05.748Z,-5.21
2018-02-07T01:13:33.583Z,-5.24
2018-02-07T01:16:01.524Z,-5.28
2018-02-07T01:18:29.352Z,-5.30
2018-02-07T01:20:57.283Z,-5.34
2018-02-07T01:23:25.139Z,-5.36
2018-02-07T01:25:52.939Z,-5.42
2018-02-07T01:28:20.758Z,-5.43
2018-02-07T01:30:48.519Z,-5.45
2018-02-07T01:33:16.340Z,-5.43
2018-02-07T01:35:44.071Z,-5.52
2018-02-07T01:38:12.052Z,-5.50
2018-02-07T01:40:39.901Z,-5.57
2018-02-07T01:43:07.753Z,-5.64
2018-02-07T01:45:35.627Z,-5.73
2018-02-07T01:48:03.513Z,-5.80
2018-02-07T01:50:31.273Z,-5.85
2018-02-07T01:52:59.121Z,-5.89
2018-02-07T01:55:26.921Z,-5.87
2018-02-07T01:57:54.751Z,-5.92
2018-02-07T02:00:22.548Z,-5.98
2018-02-07T02:02:50.391Z,-6.01
2018-02-07T02:05:18.126Z,-6.04
2018-02-07T02:07:45.975Z,-6.13
2018-02-07T02:10:13.735Z,-6.21
2018-02-07T02:12:41.616Z,-6.34
2018-02-07T02:15:09.353Z,-6.43
2018-02-07T02:17:37.160Z,-6.51
2018-02-07T02:20:04.968Z,-6.59
2018-02-07T02:22:32.809Z,-6.62
2018-02-07T02:25:00.570Z,-6.67
2018-02-07T02:27:28.375Z,-6.68
2018-02-07T02:29:56.118Z,-6.67
2018-02-07T02:32:23.965Z,-6.64
2018-02-07T02:34:51.695Z,-6.67
2018-02-07T02:37:19.503Z,-6.75
2018-02-07T02:39:47.338Z,-6.82
2018-02-07T02:42:15.096Z,-6.85
2018-02-07T02:44:42.927Z,-6.90
2018-02-07T02:47:10.653Z,-6.91
2018-02-07T02:49:38.500Z,-6.85
2018-02-07T02:52:06.231Z,-6.78
2018-02-07T02:54:34.100Z,-6.73
2018-02-07T02:57:02.039Z,-6.66
2018-02-07T02:59:29.820Z,-6.51
2018-02-07T03:01:57.729Z,-6.40
2018-02-07T03:04:25.502Z,-6.35
2018-02-07T03:06:53.280Z,-6.39
2018-02-07T03:09:21.132Z,-6.38
2018-02-07T03:11:48.882Z,-6.44
2018-02-07T03:14:16.707Z,-6.44
2018-02-07T03:16:44.695Z,-6.46
2018-02-07T03:19:12.489Z,-6.53
2018-02-07T03:21:40.233Z,-6.63
2018-02-07T03:24:08.028Z,-6.75
2018-02-07T03:26:35.797Z,-6.79
2018-02-07T03:29:03.602Z,-6.75
2018-02-07T03:31:31.356Z,-6.65
2018-02-07T03:33:59.196Z,-6.55
2018-02-07T03:36:26.981Z,-6.48
2018-02-07T03:38:54.792Z,-6.40
2018-02-07T03:41:22.573Z,-6.33
2018-02-07T03:43:50.411Z,-6.27
2018-02-07T03:46:18.186Z,-6.38
2018-02-07T03:48:45.977Z,-6.39
2018-02-07T03:51:13.777Z,-6.45
2018-02-07T03:53:41.603Z,-6.41
2018-02-07T03:56:09.357Z,-6.43
2018-02-07T03:58:37.291Z,-6.44
2018-02-07T04:01:05.068Z,-6.41
2018-02-07T04:03:32.904Z,-6.42
2018-02-07T04:06:00.816Z,-6.48
2018-02-07T04:08:28.632Z,-6.55
2018-02-07T04:10:56.423Z,-6.51
2018-02-07T04:13:24.240Z,-6.49
2018-02-07T04:15:52.037Z,-6.44
2018-02-07T04:18:20.012Z,-6.55
2018-02-07T04:20:47.924Z,-6.66
2018-02-07T04:23:15.684Z,-6.69
2018-02-07T04:25:43.502Z,-6.70
2018-02-07T04:28:11.301Z,-6.79
2018-02-07T04:30:39.191Z,-6.88
2018-02-07T04:33:06.984Z,-6.93
2018-02-07T04:35:34.795Z,-6.95
2018-02-07T04:38:02.561Z,-6.98
2018-02-07T04:40:30.425Z,-7.05
2018-02-07T04:42:58.281Z,-7.16
2018-02-07T04:45:26.136Z,-7.23
2018-02-07T04:47:53.895Z,-7.18
2018-02-07T04:50:21.716Z,-7.10
2018-02-07T04:52:49.501Z,-7.06
2018-02-07T04:55:17.312Z,-7.02
2018-02-07T04:57:45.225Z,-7.02
2018-02-07T05:00:13.075Z,-7.04
2018-02-07T05:02:41.019Z,-7.10
2018-02-07T05:05:08.850Z,-7.11
2018-02-07T05:07:36.641Z,-7.04
2018-02-07T05:10:04.479Z,-7.05
2018-02-07T05:12:32.248Z,-7.05
2018-02-07T05:15:00.095Z,-7.06
2018-02-07T05:17:28.035Z,-7.01
2018-02-07T05:19:55.836Z,-7.03
2018-02-07T05:22:23.636Z,-7.08
2018-02-07T05:24:51.488Z,-7.10
2018-02-07T05:27:19.235Z,-7.11
2018-02-07T05:29:47.198Z,-7.13
2018-02-07T05:32:15.236Z,-7.17
2018-02-07T05:34:43.079Z,-7.19
2018-02-07T05:37:10.892Z,-7.18
2018-02-07T05:39:38.712Z,-7.13
2018-02-07T05:42:06.508Z,-7.10
2018-02-07T05:44:34.284Z,-7.07
2018-02-07T05:47:02.103Z,-7.08
2018-02-07T05:49:30.055Z,-7.09
2018-02-07T05:51:57.849Z,-7.11
2018-02-07T05:54:25.714Z,-7.07
2018-02-07T05:56:53.468Z,-7.05
2018-02-07T05:59:21.350Z,-7.05
2018-02-07T06:01:49.142Z,-7.11
2018-02-07T06:04:16.964Z,-7.26
2018-02-07T06:06:44.756Z,-7.40
2018-02-07T06:09:12.544Z,-7.43
2018-02-07T06:11:40.381Z,-7.46
2018-02-07T06:14:08.136Z,-7.50
2018-02-07T06:16:35.963Z,-7.52
2018-02-07T06:19:03.772Z,-7.48
2018-02-07T06:21:31.635Z,-7.48
2018-02-07T06:23:59.585Z,-7.46
2018-02-07T06:26:27.420Z,-7.39
2018-02-07T06:28:55.209Z,-7.33
2018-02-07T06:31:23.092Z,-7.28
2018-02-07T06:33:50.900Z,-7.36
2018-02-07T06:36:18.787Z,-7.57
2018-02-07T06:38:46.576Z,-7.74
2018-02-07T06:41:14.381Z,-7.87
2018-02-07T06:43:42.177Z,-7.96
2018-02-07T06:46:09.988Z,-7.94
2018-02-07T06:48:37.885Z,-7.95
2018-02-07T06:51:05.815Z,-7.99
2018-02-07T06:53:33.575Z,-8.05
2018-02-07T06:56:01.404Z,-8.06
2018-02-07T06:58:29.192Z,-8.05
2018-02-07T07:00:57.024Z,-8.10
2018-02-07T07:03:24.864Z,-8.08
2018-02-07T07:05:52.698Z,-8.08
2018-02-07T07:08:20.489Z,-8.01
2018-02-07T07:10:48.386Z,-7.92
2018-02-07T07:13:16.198Z,-7.79
2018-02-07T07:15:44.037Z,-7.64
2018-02-07T07:18:11.820Z,-7.48
2018-02-07T07:20:39.792Z,-7.36
2018-02-07T07:23:07.580Z,-7.27
2018-02-07T07:25:35.590Z,-7.16
2018-02-07T07:28:03.464Z,-6.96
2018-02-07T07:30:31.352Z,-6.78
2018-02-07T07:32:59.275Z,-6.62
2018-02-07T07:35:27.136Z,-6.46
2018-02-07T07:37:54.935Z,-6.31
2018-02-07T07:40:22.768Z,-6.17
2018-02-07T07:42:50.535Z,-6.04
2018-02-07T07:45:18.324Z,-5.92
2018-02-07T07:47:46.110Z,-5.80
2018-02-07T07:50:13.892Z,-5.68
2018-02-07T07:52:41.758Z,-5.56
2018-02-07T07:58:40.912Z,-5.24
2018-02-07T08:01:08.755Z,-5.15
2018-02-07T08:03:36.548Z,-5.03
2018-02-07T08:06:04.384Z,-4.93
2018-02-07T08:08:32.249Z,-4.83
2018-02-07T08:11:00.081Z,-4.81
2018-02-07T08:13:27.917Z,-4.73
2018-02-07T08:15:55.744Z,-4.65
2018-02-07T08:18:23.565Z,-4.54
2018-02-07T08:20:51.377Z,-4.50
2018-02-07T08:23:19.193Z,-4.38
2018-02-07T08:25:47.143Z,-4.28
2018-02-07T08:28:14.917Z,-4.17
2018-02-07T08:30:42.769Z,-4.08
2018-02-07T08:33:10.561Z,-3.96
2018-02-07T08:35:38.422Z,-3.86
2018-02-07T08:38:06.255Z,-3.82
2018-02-07T08:40:34.048Z,-3.77
2018-02-07T08:43:02.036Z,-3.69
2018-02-07T08:45:29.878Z,-3.61
2018-02-07T08:47:57.706Z,-3.57
2018-02-07T08:50:25.502Z,-3.47
2018-02-07T08:52:53.368Z,-3.41
2018-02-07T08:55:21.226Z,-3.32
2018-02-07T08:57:49.076Z,-3.15
2018-02-07T09:00:16.864Z,-3.13
2018-02-07T09:02:44.708Z,-3.05
2018-02-07T09:05:12.487Z,-2.99
2018-02-07T09:07:40.318Z,-3.04
2018-02-07T09:10:08.152Z,-2.96
2018-02-07T09:12:36.001Z,-2.89
2018-02-07T09:15:03.899Z,-2.87
2018-02-07T09:17:31.814Z,-2.81
2018-02-07T09:19:59.588Z,-2.74
2018-02-07T09:22:27.399Z,-2.64
2018-02-07T09:24:55.201Z,-2.51
2018-02-07T09:27:23.036Z,-2.37
2018-02-07T09:29:50.859Z,-2.24
2018-02-07T09:32:18.695Z,-2.16
2018-02-07T09:34:46.560Z,-2.09
2018-02-07T09:37:14.401Z,-1.93
2018-02-07T09:39:42.259Z,-1.81
2018-02-07T09:42:10.103Z,-1.66
2018-02-07T09:44:37.956Z,-1.51
2018-02-07T09:47:05.784Z,-1.42
2018-02-07T09:49:33.551Z,-1.36
2018-02-07T09:52:01.379Z,-1.37
2018-02-07T09:54:29.216Z,-1.24
2018-02-07T09:56:57.070Z,-1.11
2018-02-07T09:59:24.964Z,-1.03
2018-02-07T10:01:52.818Z,-0.94
2018-02-07T10:04:20.624Z,-0.85
2018-02-07T10:06:48.438Z,-0.78
2018-02-07T10:09:16.566Z,-0.71
2018-02-07T10:11:44.384Z,-0.70
2018-02-07T10:14:12.163Z,-0.61
2018-02-07T10:16:40.062Z,-0.59
2018-02-07T10:19:07.902Z,-0.49
2018-02-07T10:21:36.003Z,-0.38
2018-02-07T10:24:03.855Z,-0.40
2018-02-07T10:26:31.939Z,-0.27
2018-02-07T10:28:59.786Z,-0.32
2018-02-07T10:31:27.546Z,-0.47
2018-02-07T10:33:55.396Z,-0.52
2018-02-07T10:36:23.204Z,-0.49
2018-02-07T10:38:51.106Z,-0.30
2018-02-07T10:41:18.985Z,-0.13
2018-02-07T10:43:46.838Z,0.00
2018-02-07T10:46:14.612Z,0.12
2018-02-07T10:48:42.472Z,0.08
2018-02-07T10:51:10.252Z,0.19
2018-02-07T10:53:38.031Z,0.25
2018-02-07T10:56:05.876Z,0.34
2018-02-07T10:58:33.773Z,0.39
2018-02-07T11:01:01.561Z,0.37
2018-02-07T11:03:29.449Z,0.41
2018-02-07T11:05:57.189Z,0.49
2018-02-07T11:08:25.022Z,0.53
2018-02-07T11:10:52.799Z,0.47
2018-02-07T11:13:20.574Z,0.38
2018-02-07T11:15:48.328Z,0.38
2018-02-07T11:18:16.140Z,0.40
2018-02-07T11:20:43.910Z,0.44
2018-02-07T11:23:11.710Z,0.48
2018-02-07T11:25:39.452Z,0.56
2018-02-07T11:28:07.286Z,0.59
2018-02-07T11:30:35.065Z,0.50
2018-02-07T11:33:02.889Z,0.50
2018-02-07T11:35:30.673Z,0.53
2018-02-07T11:37:58.507Z,0.55
2018-02-07T11:40:26.265Z,0.57
2018-02-07T11:42:54.103Z,0.61
2018-02-07T11:45:21.860Z,0.70
2018-02-07T11:47:49.635Z,0.75
2018-02-07T11:50:18.196Z,0.84
2018-02-07T11:52:46.046Z,0.95
2018-02-07T11:55:13.840Z,1.05
2018-02-07T11:57:41.729Z,1.06
2018-02-07T12:00:09.498Z,0.80
2018-02-07T12:02:37.299Z,0.80
2018-02-07T12:05:05.099Z,0.87
2018-02-07T12:07:32.891Z,0.99
2018-02-07T12:10:00.851Z,0.95
2018-02-07T12:12:28.636Z,1.04
2018-02-07T12:14:56.440Z,1.05
2018-02-07T12:17:24.367Z,1.07
2018-02-07T12:19:52.206Z,1.17
2018-02-07T12:22:20.051Z,1.13
2018-02-07T12:24:47.844Z,1.15
2018-02-07T12:27:15.646Z,1.14
2018-02-07T12:29:44.441Z,1.13
2018-02-07T12:32:12.212Z,1.18
2018-02-07T12:34:40.132Z,1.20
2018-02-07T12:37:07.947Z,1.20
2018-02-07T12:39:35.808Z,1.20
2018-02-07T12:42:04.662Z,1.14
2018-02-07T12:44:32.569Z,1.14
2018-02-07T12:47:00.346Z,1.11
2018-02-07T12:49:28.156Z,1.10
2018-02-07T12:51:55.995Z,1.11
2018-02-07T12:54:24.007Z,1.15
2018-02-07T12:56:51.773Z,1.16
2018-02-07T12:59:19.591Z,1.19
2018-02-07T13:01:47.382Z,1.20
2018-02-07T13:04:15.195Z,1.21
2018-02-07T13:06:42.968Z,1.22
2018-02-07T13:09:10.783Z,1.19
2018-02-07T13:11:38.579Z,1.24
2018-02-07T13:14:06.407Z,1.24
2018-02-07T13:16:34.172Z,1.25
2018-02-07T13:19:02.007Z,1.29
2018-02-07T13:21:29.775Z,1.29
2018-02-07T13:23:57.647Z,1.28
2018-02-07T13:26:25.747Z,1.23
2018-02-07T13:28:53.659Z,1.22
2018-02-07T13:31:21.420Z,1.20
2018-02-07T13:33:49.224Z,1.26
2018-02-07T13:36:17.024Z,1.32
2018-02-07T13:38:44.860Z,1.36
2018-02-07T13:41:12.623Z,1.40
2018-02-07T13:43:40.460Z,1.42
2018-02-07T13:46:08.302Z,1.39
2018-02-07T13:48:36.080Z,1.31
2018-02-07T13:51:03.904Z,1.27
2018-02-07T13:53:31.688Z,1.23
2018-02-07T13:55:59.528Z,1.20
2018-02-07T13:58:27.328Z,1.17
2018-02-07T14:00:55.162Z,1.16
2018-02-07T14:03:22.955Z,1.16
2018-02-07T14:05:50.756Z,1.12
2018-02-07T14:08:18.620Z,1.05
2018-02-07T14:10:46.490Z,0.96
2018-02-07T14:13:14.255Z,0.91
2018-02-07T14:15:42.168Z,0.85
2018-02-07T14:18:09.939Z,0.87
2018-02-07T14:20:37.878Z,0.88
2018-02-07T14:23:05.975Z,0.85
2018-02-07T14:25:33.837Z,0.84
2018-02-07T14:28:01.666Z,0.80
2018-02-07T14:30:29.506Z,0.77
2018-02-07T14:33:03.023Z,0.76
2018-02-07T14:35:31.621Z,0.71
2018-02-07T14:37:59.358Z,0.70
2018-02-07T14:40:27.169Z,0.67
2018-02-07T14:42:54.940Z,0.64
2018-02-07T14:45:22.823Z,0.60
2018-02-07T14:47:50.635Z,0.53
2018-02-07T14:50:18.434Z,0.49
2018-02-07T14:52:46.312Z,0.45
2018-02-07T14:55:14.185Z,0.39
2018-02-07T14:57:42.929Z,0.36
2018-02-07T15:00:10.956Z,0.34
2018-02-07T15:02:38.791Z,0.32
2018-02-07T15:05:06.637Z,0.29
2018-02-07T15:07:34.431Z,0.26
2018-02-07T15:10:02.220Z,0.21
2018-02-07T15:12:30.113Z,0.16
2018-02-07T15:14:57.942Z,0.10
2018-02-07T15:17:25.740Z,0.06
2018-02-07T15:19:53.786Z,-0.01
2018-02-07T15:22:21.580Z,-0.04
2018-02-07T15:24:49.391Z,-0.08
2018-02-07T15:27:17.176Z,-0.16
2018-02-07T15:29:45.001Z,-0.22
2018-02-07T15:32:12.858Z,-0.26
2018-02-07T15:34:40.700Z,-0.32
2018-02-07T15:37:08.515Z,-0.37
2018-02-07T15:39:36.280Z,-0.45
2018-02-07T15:42:04.104Z,-0.48
2018-02-07T15:44:31.845Z,-0.55
2018-02-07T15:46:59.668Z,-0.56
2018-02-07T15:49:27.464Z,-0.57
2018-02-07T15:51:55.299Z,-0.57
2018-02-07T15:54:23.017Z,-0.60
2018-02-07T15:56:50.867Z,-0.63
2018-02-07T15:59:18.619Z,-0.63
2018-02-07T16:01:46.458Z,-0.70
2018-02-07T16:04:14.306Z,-0.77
2018-02-07T16:06:42.169Z,-0.81
2018-02-07T16:09:10.007Z,-0.88
2018-02-07T16:11:37.872Z,-0.93
2018-02-07T16:14:05.659Z,-0.97
2018-02-07T16:16:33.496Z,-1.01
2018-02-07T16:19:01.269Z,-1.09
2018-02-07T16:21:29.139Z,-1.16
2018-02-07T16:23:57.086Z,-1.20
2018-02-07T16:26:24.927Z,-1.25
2018-02-07T16:28:52.744Z,-1.28
2018-02-07T16:31:20.583Z,-1.34
2018-02-07T16:33:48.398Z,-1.41
2018-02-07T16:36:16.295Z,-1.48
2018-02-07T16:38:44.088Z,-1.56
2018-02-07T16:41:11.957Z,-1.64
2018-02-07T16:43:39.801Z,-1.75
2018-02-07T16:46:07.655Z,-1.87
2018-02-07T16:48:35.441Z,-1.95
2018-02-07T16:51:03.277Z,-1.99
2018-02-07T16:53:31.069Z,-2.01
2018-02-07T16:55:58.958Z,-1.99
2018-02-07T16:58:26.705Z,-2.01
2018-02-07T17:00:54.529Z,-2.00
2018-02-07T17:03:22.400Z,-1.98
2018-02-07T17:05:50.263Z,-1.95
2018-02-07T17:08:18.050Z,-1.96
2018-02-07T17:10:45.874Z,-1.97
2018-02-07T17:13:13.617Z,-2.03
2018-02-07T17:15:41.526Z,-2.08
2018-02-07T17:18:09.312Z,-2.12
2018-02-07T17:20:37.091Z,-2.18
2018-02-07T17:23:04.934Z,-2.23
2018-02-07T17:25:32.757Z,-2.29
2018-02-07T17:28:00.616Z,-2.37
2018-02-07T17:30:28.417Z,-2.50
2018-02-07T17:32:56.257Z,-2.63
2018-02-07T17:35:24.019Z,-2.76
2018-02-07T17:37:51.919Z,-2.90
2018-02-07T17:40:19.709Z,-2.99
2018-02-07T17:42:47.572Z,-3.05
2018-02-07T17:45:15.350Z,-3.08
2018-02-07T17:47:43.175Z,-3.08
2018-02-07T17:50:11.009Z,-3.10
2018-02-07T17:52:38.835Z,-3.14
2018-02-07T17:55:06.635Z,-3.23
2018-02-07T17:57:34.468Z,-3.28
2018-02-07T18:00:02.268Z,-3.30
2018-02-07T18:02:30.139Z,-3.33
2018-02-07T18:04:57.996Z,-3.36
2018-02-07T18:07:25.857Z,-3.42
2018-02-07T18:09:53.600Z,-3.52
2018-02-07T18:12:21.414Z,-3.63
2018-02-07T18:14:49.175Z,-3.72
2018-02-07T18:17:16.970Z,-3.80
2018-02-07T18:19:44.739Z,-3.88
2018-02-07T18:22:12.544Z,-3.94
2018-02-07T18:24:40.300Z,-3.99
2018-02-07T18:27:08.218Z,-4.02
2018-02-07T18:29:36.005Z,-4.08
2018-02-07T18:32:03.866Z,-4.15
2018-02-07T18:34:31.696Z,-4.17
2018-02-07T18:36:59.495Z,-4.20
2018-02-07T18:39:27.261Z,-4.22
2018-02-07T18:41:55.026Z,-4.25
2018-02-07T18:44:22.782Z,-4.32
2018-02-07T18:46:50.614Z,-4.38
2018-02-07T18:49:18.447Z,-4.47
2018-02-07T18:51:46.242Z,-4.53
2018-02-07T18:54:14.083Z,-4.60
2018-02-07T18:56:41.932Z,-4.68
2018-02-07T18:59:09.703Z,-4.74
2018-02-07T19:01:37.648Z,-4.77
2018-02-07T19:04:05.449Z,-4.80
2018-02-07T19:06:33.243Z,-4.85
2018-02-07T19:09:01.103Z,-4.88
2018-02-07T19:11:28.883Z,-4.87
2018-02-07T19:13:56.682Z,-4.82
2018-02-07T19:16:24.581Z,-4.72
2018-02-07T19:18:52.372Z,-4.63
2018-02-07T19:21:20.240Z,-4.53
2018-02-07T19:23:48.094Z,-4.48
2018-02-07T19:26:15.923Z,-4.45
2018-02-07T19:28:43.719Z,-4.48
2018-02-07T19:31:11.480Z,-4.62
2018-02-07T19:33:39.403Z,-4.63
2018-02-07T19:36:07.259Z,-4.58
2018-02-07T19:38:35.112Z,-4.59
2018-02-07T19:41:02.876Z,-4.65
2018-02-07T19:43:30.714Z,-4.70
2018-02-07T19:45:58.505Z,-4.77
2018-02-07T19:48:26.387Z,-4.84
2018-02-07T19:50:54.246Z,-4.89
2018-02-07T19:53:22.172Z,-4.88
2018-02-07T19:55:49.976Z,-4.88
2018-02-07T19:58:17.824Z,-4.89
2018-02-07T20:00:45.595Z,-4.91
2018-02-07T20:03:13.481Z,-4.89
2018-02-07T20:05:41.308Z,-4.88
2018-02-07T20:08:09.151Z,-4.84
2018-02-07T20:10:36.925Z,-4.80
2018-02-07T20:13:04.753Z,-4.80
2018-02-07T20:15:32.560Z,-4.93
2018-02-07T20:18:00.386Z,-5.05
2018-02-07T20:20:28.243Z,-5.11
2018-02-07T20:22:56.122Z,-5.17
2018-02-07T20:25:23.943Z,-5.27
2018-02-07T20:27:51.854Z,-5.34
2018-02-07T20:30:19.691Z,-5.37
2018-02-07T20:32:47.579Z,-5.35
2018-02-07T20:35:15.348Z,-5.32
2018-02-07T20:37:43.163Z,-5.28
2018-02-07T20:40:10.953Z,-5.23
2018-02-07T20:42:38.782Z,-5.25
2018-02-07T20:45:06.655Z,-5.24
2018-02-07T20:47:34.375Z,-5.20
2018-02-07T20:50:02.284Z,-5.23
2018-02-07T20:52:30.022Z,-5.23
2018-02-07T20:54:57.869Z,-5.29
2018-02-07T20:57:25.628Z,-5.35
2018-02-07T20:59:53.456Z,-5.40
2018-02-07T21:02:21.260Z,-5.43
2018-02-07T21:04:49.122Z,-5.44
2018-02-07T21:07:16.892Z,-5.46
2018-02-07T21:09:44.742Z,-5.52
2018-02-07T21:12:12.556Z,-5.56
2018-02-07T21:14:40.428Z,-5.66
2018-02-07T21:17:08.215Z,-5.78
2018-02-07T21:19:36.135Z,-5.85
2018-02-07T21:22:03.953Z,-5.90
2018-02-07T21:24:31.988Z,-5.87
2018-02-07T21:26:59.787Z,-5.83
2018-02-07T21:29:27.648Z,-5.77
2018-02-07T21:31:55.448Z,-5.68
2018-02-07T21:34:23.267Z,-5.64
2018-02-07T21:36:51.087Z,-5.67
2018-02-07T21:39:18.930Z,-5.78
2018-02-07T21:41:46.719Z,-5.76
2018-02-07T21:44:14.600Z,-5.75
2018-02-07T21:46:42.434Z,-5.76
2018-02-07T21:49:10.358Z,-5.83
2018-02-07T21:51:38.226Z,-5.85
2018-02-07T21:54:06.050Z,-5.84
2018-02-07T21:56:33.941Z,-5.83
2018-02-07T21:59:01.791Z,-5.82
2018-02-07T22:01:29.624Z,-5.79
2018-02-07T22:03:57.459Z,-5.73
2018-02-07T22:06:25.284Z,-5.69
2018-02-07T22:08:53.155Z,-5.71
2018-02-07T22:11:21.064Z,-5.83
2018-02-07T22:13:48.906Z,-5.96
2018-02-07T22:16:16.691Z,-6.04
2018-02-07T22:18:44.528Z,-6.04
2018-02-07T22:21:12.310Z,-6.05
2018-02-07T22:23:40.144Z,-6.09
2018-02-07T22:26:07.948Z,-6.12
2018-02-07T22:28:35.811Z,-6.12
2018-02-07T22:31:03.697Z,-6.15
2018-02-07T22:33:31.555Z,-6.15
2018-02-07T22:35:59.459Z,-6.13
2018-02-07T22:38:27.262Z,-6.23
2018-02-07T22:40:55.058Z,-6.33
2018-02-07T22:43:22.796Z,-6.36
2018-02-07T22:45:50.585Z,-6.41
2018-02-07T22:48:18.360Z,-6.43
2018-02-07T22:50:46.144Z,-6.41
2018-02-07T22:53:13.865Z,-6.33
2018-02-07T22:55:41.660Z,-6.32
2018-02-07T22:58:09.408Z,-6.38
2018-02-07T23:00:37.239Z,-6.42
2018-02-07T23:03:04.996Z,-6.46
2018-02-07T23:05:32.830Z,-6.49
2018-02-07T23:08:00.572Z,-6.55
2018-02-07T23:10:28.370Z,-6.64
2018-02-07T23:12:56.121Z,-6.75
2018-02-07T23:15:23.951Z,-6.81
2018-02-07T23:17:51.694Z,-6.87
2018-02-07T23:20:19.477Z,-6.87
2018-02-07T23:22:47.231Z,-6.85
2018-02-07T23:25:15.150Z,-6.81
2018-02-07T23:27:42.900Z,-6.77
2018-02-07T23:30:10.743Z,-6.71
2018-02-07T23:32:38.476Z,-6.68
2018-02-07T23:35:06.261Z,-6.68
2018-02-07T23:37:34.110Z,-6.76
2018-02-07T23:40:01.888Z,-6.88
2018-02-07T23:42:29.677Z,-6.89
2018-02-07T23:44:57.474Z,-7.01
2018-02-07T23:47:25.231Z,-7.08
2018-02-07T23:49:53.091Z,-7.06
2018-02-07T23:52:20.837Z,-7.04
2018-02-07T23:54:48.681Z,-7.01
2018-02-07T23:57:16.428Z,-6.96
2018-02-07T23:59:44.217Z,-6.87
